createdAt,value
2023-01-29T00:02:52.372Z,83.47
2023-01-29T00:05:55.462Z,83.72
2023-01-29T00:08:58.976Z,82.87
2023-01-29T00:12:02.375Z,82.75
2023-01-29T00:15:10.743Z,82.97
2023-01-29T00:18:14.726Z,82.88
2023-01-29T00:21:20.186Z,82.28
2023-01-29T00:24:25.857Z,82.15
2023-01-29T00:27:29.961Z,82.63
2023-01-29T00:30:33.766Z,82.50
2023-01-29T00:33:36.984Z,82.53
2023-01-29T00:36:40.139Z,82.63
2023-01-29T00:39:48.097Z,82.84
2023-01-29T00:43:10.589Z,82.62
2023-01-29T00:46:14.767Z,82.98
2023-01-29T00:49:18.069Z,82.15
2023-01-29T00:52:27.082Z,83.00
2023-01-29T00:55:30.336Z,83.01
2023-01-29T00:58:36.079Z,82.88
2023-01-29T01:01:59.027Z,82.60
2023-01-29T01:05:06.335Z,83.03
2023-01-29T01:08:29.548Z,82.85
2023-01-29T01:11:34.357Z,83.10
2023-01-29T01:14:37.476Z,82.68
2023-01-29T01:17:40.525Z,82.38
2023-01-29T01:20:51.707Z,82.33
2023-01-29T01:23:54.775Z,82.55
2023-01-29T01:26:57.873Z,82.53
2023-01-29T01:30:01.093Z,83.82
2023-01-29T01:33:06.802Z,83.61
2023-01-29T01:36:10.062Z,82.83
2023-01-29T01:39:13.558Z,83.23
2023-01-29T01:42:16.755Z,83.81
2023-01-29T01:45:26.148Z,83.22
2023-01-29T01:48:30.760Z,83.16
2023-01-29T01:51:39.391Z,83.41
2023-01-29T01:54:44.674Z,82.92
2023-01-29T01:57:53.125Z,84.05
2023-01-29T02:00:57.502Z,83.85
2023-01-29T02:04:26.372Z,84.17
2023-01-29T02:07:48.161Z,83.68
2023-01-29T02:10:51.431Z,83.34
2023-01-29T02:13:54.756Z,83.52
2023-01-29T02:17:02.234Z,83.60
2023-01-29T02:20:18.150Z,83.44
2023-01-29T02:23:43.496Z,84.13
2023-01-29T02:26:59.925Z,83.69
2023-01-29T02:30:36.259Z,83.26
2023-01-29T02:33:59.562Z,83.61
2023-01-29T02:37:09.863Z,84.06
2023-01-29T02:40:37.229Z,84.04
2023-01-29T02:43:40.353Z,83.69
2023-01-29T02:46:51.993Z,84.06
2023-01-29T02:50:26.020Z,83.20
2023-01-29T02:53:35.324Z,83.60
2023-01-29T02:56:51.934Z,84.07
2023-01-29T03:00:10.659Z,83.44
2023-01-29T03:03:17.892Z,83.37
2023-01-29T03:06:28.551Z,83.63
2023-01-29T03:09:39.835Z,83.29
2023-01-29T03:12:47.352Z,83.48
2023-01-29T03:16:01.753Z,83.10
2023-01-29T03:19:36.895Z,83.41
2023-01-29T03:22:51.905Z,83.24
2023-01-29T03:26:18.316Z,83.81
2023-01-29T03:29:40.996Z,83.42
2023-01-29T03:32:47.036Z,82.99
2023-01-29T03:35:56.994Z,82.38
2023-01-29T03:39:00.507Z,82.42
2023-01-29T03:42:22.574Z,81.48
2023-01-29T03:46:08.664Z,82.53
2023-01-29T03:49:19.783Z,81.85
2023-01-29T03:52:39.126Z,81.66
2023-01-29T03:55:59.894Z,81.70
2023-01-29T03:59:12.071Z,80.90
2023-01-29T04:02:49.272Z,81.67
2023-01-29T04:05:52.647Z,81.32
2023-01-29T04:09:11.012Z,81.23
2023-01-29T04:12:26.966Z,81.71
2023-01-29T04:15:34.882Z,81.80
2023-01-29T04:18:37.919Z,81.40
2023-01-29T04:21:45.151Z,82.25
2023-01-29T04:24:50.329Z,80.36
2023-01-29T04:28:18.387Z,80.49
2023-01-29T04:31:25.347Z,80.91
2023-01-29T04:34:35.601Z,81.58
2023-01-29T04:37:45.913Z,81.42
2023-01-29T04:40:57.253Z,81.17
2023-01-29T04:44:15.441Z,80.74
2023-01-29T04:47:43.586Z,80.43
2023-01-29T04:50:55.835Z,80.38
2023-01-29T04:54:14.121Z,80.25
2023-01-29T04:57:25.646Z,80.14
2023-01-29T05:00:35.136Z,80.45
2023-01-29T05:03:40.815Z,80.99
2023-01-29T05:06:45.109Z,80.89
2023-01-29T05:09:49.733Z,80.85
2023-01-29T05:13:00.691Z,80.95
2023-01-29T05:16:21.891Z,80.57
2023-01-29T05:19:24.848Z,80.86
2023-01-29T05:22:28.095Z,80.59
2023-01-29T05:25:33.302Z,80.11
2023-01-29T05:28:36.242Z,79.83
2023-01-29T05:31:39.404Z,80.66
2023-01-29T05:34:42.715Z,80.55
2023-01-29T05:37:45.908Z,80.02
2023-01-29T05:41:08.510Z,79.96
2023-01-29T05:44:11.481Z,79.63
2023-01-29T05:47:14.294Z,79.91
2023-01-29T05:50:17.561Z,79.57
2023-01-29T05:53:20.612Z,79.74
2023-01-29T05:56:23.646Z,80.24
2023-01-29T05:59:26.573Z,79.60
2023-01-29T06:02:32.673Z,79.17
2023-01-29T06:05:38.729Z,79.27
2023-01-29T06:08:41.956Z,79.32
2023-01-29T06:11:45.085Z,79.35
2023-01-29T06:14:48.032Z,79.46
2023-01-29T06:17:50.725Z,79.89
2023-01-29T06:20:53.797Z,79.64
2023-01-29T06:23:56.863Z,79.22
2023-01-29T06:26:59.956Z,79.90
2023-01-29T06:30:04.705Z,78.96
2023-01-29T06:33:07.738Z,79.03
2023-01-29T06:36:10.668Z,78.67
2023-01-29T06:39:13.500Z,78.95
2023-01-29T06:42:16.434Z,78.84
2023-01-29T06:45:19.413Z,78.82
2023-01-29T06:48:23.789Z,79.26
2023-01-29T06:51:26.684Z,78.94
2023-01-29T06:54:29.770Z,78.41
2023-01-29T06:57:32.620Z,77.96
2023-01-29T07:00:36.325Z,78.68
2023-01-29T07:03:39.404Z,79.09
2023-01-29T07:06:42.109Z,78.87
2023-01-29T07:09:44.831Z,79.43
2023-01-29T07:12:47.834Z,78.86
2023-01-29T07:15:50.560Z,78.85
2023-01-29T07:18:53.416Z,79.22
2023-01-29T07:21:56.294Z,79.40
2023-01-29T07:24:59.220Z,78.18
2023-01-29T07:28:02.492Z,77.92
2023-01-29T07:31:06.283Z,77.16
2023-01-29T07:34:09.510Z,77.56
2023-01-29T07:37:12.475Z,77.74
2023-01-29T07:40:16.249Z,77.52
2023-01-29T07:43:19.565Z,78.00
2023-01-29T07:46:22.460Z,78.18
2023-01-29T07:49:27.221Z,77.72
2023-01-29T07:52:31.636Z,77.08
2023-01-29T07:55:34.527Z,77.22
2023-01-29T07:58:37.402Z,77.40
2023-01-29T08:01:40.188Z,77.79
2023-01-29T08:04:42.988Z,77.20
2023-01-29T08:07:49.349Z,77.13
2023-01-29T08:11:03.120Z,76.53
2023-01-29T08:14:06.025Z,76.66
2023-01-29T08:17:08.822Z,75.76
2023-01-29T08:20:19.698Z,75.03
2023-01-29T08:23:23.307Z,75.98
2023-01-29T08:26:27.972Z,76.72
2023-01-29T08:29:31.373Z,75.97
2023-01-29T08:32:34.316Z,75.13
2023-01-29T08:35:37.662Z,74.82
2023-01-29T08:38:40.673Z,74.62
2023-01-29T08:41:43.901Z,74.52
2023-01-29T08:44:47.026Z,74.26
2023-01-29T08:47:50.744Z,73.58
2023-01-29T08:50:57.105Z,74.20
2023-01-29T08:54:00.197Z,74.11
2023-01-29T08:57:03.776Z,73.93
2023-01-29T09:00:09.508Z,73.49
2023-01-29T09:03:12.577Z,73.42
2023-01-29T09:06:15.460Z,72.81
2023-01-29T09:09:18.700Z,73.17
2023-01-29T09:12:21.632Z,71.90
2023-01-29T09:15:24.771Z,70.25
2023-01-29T09:18:28.481Z,70.91
2023-01-29T09:21:31.601Z,69.46
2023-01-29T09:24:35.312Z,69.64
2023-01-29T09:27:38.267Z,69.39
2023-01-29T09:30:41.384Z,68.56
2023-01-29T09:33:44.371Z,68.03
2023-01-29T09:36:47.318Z,67.43
2023-01-29T09:39:50.602Z,67.42
2023-01-29T09:43:43.218Z,67.89
2023-01-29T09:46:48.707Z,66.96
2023-01-29T09:50:18.428Z,66.71
2023-01-29T09:53:34.714Z,67.77
2023-01-29T09:56:37.619Z,67.97
2023-01-29T09:59:40.714Z,67.88
2023-01-29T10:03:03.993Z,68.36
2023-01-29T10:06:37.407Z,67.51
2023-01-29T10:10:07.878Z,66.81
2023-01-29T10:13:37.152Z,67.46
2023-01-29T10:16:46.254Z,66.90
2023-01-29T10:20:07.950Z,67.30
2023-01-29T10:23:38.732Z,68.02
2023-01-29T10:26:41.751Z,68.23
2023-01-29T10:29:47.524Z,68.59
2023-01-29T10:32:50.937Z,68.31
2023-01-29T10:36:00.307Z,68.22
2023-01-29T10:39:03.498Z,69.11
2023-01-29T10:42:34.226Z,69.51
2023-01-29T10:46:15.600Z,69.34
2023-01-29T10:49:37.380Z,69.45
2023-01-29T10:52:58.997Z,69.21
2023-01-29T10:56:31.371Z,69.31
2023-01-29T10:59:47.957Z,69.34
2023-01-29T11:02:52.153Z,71.09
2023-01-29T11:06:13.085Z,69.98
2023-01-29T11:09:26.838Z,70.12
2023-01-29T11:12:32.324Z,70.31
2023-01-29T11:15:35.275Z,70.29
2023-01-29T11:18:59.764Z,69.44
2023-01-29T11:22:04.543Z,69.69
2023-01-29T11:25:26.307Z,70.23
2023-01-29T11:28:47.073Z,70.90
2023-01-29T11:31:50.045Z,69.86
2023-01-29T11:35:16.370Z,69.79
2023-01-29T11:38:28.271Z,70.65
2023-01-29T11:41:31.082Z,71.34
2023-01-29T11:44:40.674Z,70.52
2023-01-29T11:47:48.446Z,70.63
2023-01-29T11:51:02.448Z,71.21
2023-01-29T11:54:06.622Z,70.83
2023-01-29T11:57:24.012Z,71.56
2023-01-29T12:00:29.988Z,70.06
2023-01-29T12:03:39.772Z,70.98
2023-01-29T12:06:45.599Z,69.94
2023-01-29T12:09:57.186Z,70.65
2023-01-29T12:13:10.098Z,70.11
2023-01-29T12:16:24.030Z,70.41
2023-01-29T12:19:35.404Z,70.02
2023-01-29T12:23:11.473Z,70.44
2023-01-29T12:26:33.014Z,70.29
2023-01-29T12:30:13.262Z,70.29
2023-01-29T12:33:58.538Z,70.35
2023-01-29T12:37:11.652Z,70.77
2023-01-29T12:40:17.197Z,70.55
2023-01-29T12:43:41.416Z,68.98
2023-01-29T12:46:50.791Z,69.33
2023-01-29T12:50:02.534Z,68.43
2023-01-29T12:53:08.712Z,67.89
2023-01-29T12:56:19.329Z,68.92
2023-01-29T12:59:37.784Z,68.57
2023-01-29T13:03:19.623Z,66.64
2023-01-29T13:06:34.539Z,67.10
2023-01-29T13:09:41.829Z,67.54
2023-01-29T13:12:55.951Z,67.12
2023-01-29T13:16:01.451Z,67.17
2023-01-29T13:19:24.249Z,66.56
2023-01-29T13:22:40.759Z,65.42
2023-01-29T13:25:43.915Z,65.48
2023-01-29T13:28:48.394Z,56.93
2023-01-29T13:31:53.708Z,55.16
2023-01-29T13:35:05.159Z,56.28
2023-01-29T13:38:25.687Z,55.93
2023-01-29T13:41:37.351Z,49.50
2023-01-29T13:44:41.694Z,49.43
2023-01-29T13:47:45.763Z,53.58
2023-01-29T13:50:51.512Z,56.33
2023-01-29T13:54:04.203Z,60.48
2023-01-29T13:57:35.933Z,60.91
2023-01-29T14:00:38.676Z,62.48
2023-01-29T14:04:03.335Z,62.31
2023-01-29T14:07:48.888Z,61.13
2023-01-29T14:11:17.323Z,61.19
2023-01-29T14:15:02.720Z,61.83
2023-01-29T14:18:08.843Z,61.80
2023-01-29T14:21:12.043Z,61.66
2023-01-29T14:24:21.321Z,60.97
2023-01-29T14:27:28.290Z,61.94
2023-01-29T14:30:34.507Z,61.33
2023-01-29T14:33:41.157Z,61.41
2023-01-29T14:36:47.409Z,61.00
2023-01-29T14:39:59.562Z,60.98
2023-01-29T14:43:20.148Z,61.92
2023-01-29T14:46:35.466Z,62.68
2023-01-29T14:50:26.377Z,63.85
2023-01-29T14:53:44.423Z,63.30
2023-01-29T14:57:06.144Z,62.91
2023-01-29T15:00:24.376Z,62.58
2023-01-29T15:03:48.481Z,63.16
2023-01-29T15:07:32.677Z,64.28
2023-01-29T15:11:13.235Z,64.21
2023-01-29T15:14:16.878Z,63.34
2023-01-29T15:18:02.319Z,64.66
2023-01-29T15:21:15.257Z,64.42
2023-01-29T15:24:18.144Z,63.80
2023-01-29T15:27:20.976Z,64.37
2023-01-29T15:30:33.717Z,64.32
2023-01-29T15:33:38.828Z,65.18
2023-01-29T15:36:41.715Z,64.53
2023-01-29T15:39:45.634Z,65.18
2023-01-29T15:42:48.953Z,65.29
2023-01-29T15:45:54.130Z,65.89
2023-01-29T15:49:00.462Z,66.31
2023-01-29T15:52:08.104Z,66.93
2023-01-29T15:55:15.445Z,67.56
2023-01-29T15:58:24.531Z,67.55
2023-01-29T16:01:28.744Z,66.30
2023-01-29T16:04:32.086Z,65.75
2023-01-29T16:07:36.355Z,65.14
2023-01-29T16:10:42.237Z,65.10
2023-01-29T16:13:47.964Z,65.39
2023-01-29T16:16:52.647Z,65.67
2023-01-29T16:20:00.563Z,66.07
2023-01-29T16:23:05.078Z,65.83
2023-01-29T16:26:13.398Z,66.42
2023-01-29T16:29:21.937Z,67.52
2023-01-29T16:32:25.062Z,67.65
2023-01-29T16:35:28.154Z,68.13
2023-01-29T16:38:35.436Z,68.07
2023-01-29T16:41:38.805Z,68.35
2023-01-29T16:44:57.866Z,67.80
2023-01-29T16:48:19.181Z,68.69
2023-01-29T16:51:30.854Z,67.67
2023-01-29T16:54:33.893Z,67.70
2023-01-29T16:57:38.689Z,67.69
2023-01-29T17:00:53.243Z,68.10
2023-01-29T17:04:02.224Z,68.47
2023-01-29T17:07:05.494Z,68.37
2023-01-29T17:10:16.748Z,68.18
2023-01-29T17:13:43.073Z,68.62
2023-01-29T17:16:51.311Z,69.64
2023-01-29T17:19:54.338Z,69.60
2023-01-29T17:22:57.397Z,69.04
2023-01-29T17:26:00.446Z,69.20
2023-01-29T17:29:03.826Z,69.05
2023-01-29T17:32:06.963Z,69.07
2023-01-29T17:35:14.313Z,68.66
2023-01-29T17:38:26.011Z,68.15
2023-01-29T17:41:30.805Z,68.98
2023-01-29T17:44:34.482Z,69.10
2023-01-29T17:47:37.543Z,69.05
2023-01-29T17:50:43.705Z,68.23
2023-01-29T17:53:47.599Z,68.61
2023-01-29T17:56:52.468Z,68.34
2023-01-29T17:59:55.548Z,68.43
2023-01-29T18:03:03.201Z,68.43
2023-01-29T18:06:10.318Z,69.17
2023-01-29T18:09:15.015Z,68.71
2023-01-29T18:12:18.169Z,69.37
2023-01-29T18:15:21.382Z,69.37
2023-01-29T18:18:26.235Z,69.15
2023-01-29T18:21:29.374Z,68.20
2023-01-29T18:24:32.270Z,68.57
2023-01-29T18:27:35.337Z,67.77
2023-01-29T18:30:38.343Z,67.99
2023-01-29T18:33:41.571Z,67.33
2023-01-29T18:36:47.765Z,66.87
2023-01-29T18:39:50.847Z,66.61
2023-01-29T18:42:53.974Z,67.09
2023-01-29T18:46:00.109Z,66.70
2023-01-29T18:49:03.508Z,67.50
2023-01-29T18:52:07.781Z,66.80
2023-01-29T18:55:10.615Z,67.00
2023-01-29T18:58:33.917Z,66.98
2023-01-29T19:01:37.153Z,67.89
2023-01-29T19:04:40.915Z,67.99
2023-01-29T19:07:44.235Z,68.07
2023-01-29T19:10:47.529Z,69.31
2023-01-29T19:13:55.093Z,69.09
2023-01-29T19:16:58.371Z,69.50
2023-01-29T19:20:04.945Z,69.03
2023-01-29T19:23:09.058Z,69.29
2023-01-29T19:26:13.715Z,69.81
2023-01-29T19:29:18.187Z,70.21
2023-01-29T19:32:21.332Z,70.36
2023-01-29T19:35:24.585Z,69.63
2023-01-29T19:38:28.799Z,70.48
2023-01-29T19:41:32.886Z,70.85
2023-01-29T19:44:39.120Z,70.70
2023-01-29T19:47:43.839Z,70.00
2023-01-29T19:50:52.675Z,70.37
2023-01-29T19:53:55.413Z,70.49
2023-01-29T19:56:58.284Z,70.40
2023-01-29T20:00:01.827Z,70.82
2023-01-29T20:03:07.247Z,70.48
2023-01-29T20:06:11.479Z,70.21
2023-01-29T20:09:14.867Z,69.43
2023-01-29T20:12:18.189Z,69.87
2023-01-29T20:15:22.464Z,69.51
2023-01-29T20:18:25.868Z,69.39
2023-01-29T20:21:29.111Z,69.12
2023-01-29T20:24:34.731Z,68.99
2023-01-29T20:27:37.999Z,69.55
2023-01-29T20:30:45.618Z,69.71
2023-01-29T20:33:48.773Z,69.59
2023-01-29T20:36:51.780Z,69.56
2023-01-29T20:40:00.575Z,69.76
2023-01-29T20:43:05.504Z,69.56
2023-01-29T20:46:09.733Z,69.91
2023-01-29T20:49:12.865Z,69.83
2023-01-29T20:52:15.881Z,69.71
2023-01-29T20:55:19.042Z,70.35
2023-01-29T20:58:22.171Z,71.34
2023-01-29T21:01:25.274Z,71.26
2023-01-29T21:04:28.426Z,70.94
2023-01-29T21:07:31.596Z,71.58
2023-01-29T21:10:34.728Z,71.78
2023-01-29T21:13:38.082Z,71.71
2023-01-29T21:16:41.562Z,70.76
2023-01-29T21:19:44.858Z,70.67
2023-01-29T21:22:49.352Z,70.67
2023-01-29T21:25:52.568Z,70.33
2023-01-29T21:28:56.509Z,70.76
2023-01-29T21:31:59.703Z,70.84
2023-01-29T21:35:04.428Z,71.30
2023-01-29T21:38:07.583Z,71.86
2023-01-29T21:41:10.699Z,72.73
2023-01-29T21:44:13.906Z,73.82
2023-01-29T21:47:17.125Z,73.90
2023-01-29T21:50:20.888Z,73.93
2023-01-29T21:53:24.456Z,75.01
2023-01-29T21:56:27.977Z,75.54
2023-01-29T21:59:32.767Z,75.68
2023-01-29T22:02:36.028Z,76.19
2023-01-29T22:05:39.768Z,76.27
2023-01-29T22:08:43.080Z,76.74
2023-01-29T22:11:46.503Z,76.87
2023-01-29T22:14:50.979Z,76.89
2023-01-29T22:17:54.055Z,77.15
2023-01-29T22:20:57.744Z,77.75
2023-01-29T22:24:00.819Z,77.95
2023-01-29T22:27:04.058Z,78.61
2023-01-29T22:30:07.831Z,79.54
2023-01-29T22:33:11.221Z,80.23
2023-01-29T22:36:14.148Z,79.81
2023-01-29T22:39:17.284Z,80.78
2023-01-29T22:42:20.945Z,81.13
2023-01-29T22:45:23.937Z,81.31
2023-01-29T22:48:28.686Z,81.85
2023-01-29T22:51:32.754Z,82.76
2023-01-29T22:54:40.969Z,82.62
2023-01-29T22:57:44.029Z,83.15
2023-01-29T23:00:51.423Z,84.15
2023-01-29T23:03:54.758Z,84.58
2023-01-29T23:06:58.606Z,85.78
2023-01-29T23:10:01.712Z,86.23
2023-01-29T23:13:04.821Z,86.17
2023-01-29T23:16:08.579Z,86.63
2023-01-29T23:19:12.481Z,87.18
2023-01-29T23:22:18.322Z,87.98
2023-01-29T23:25:21.466Z,88.47
2023-01-29T23:28:24.742Z,88.13
2023-01-29T23:31:27.802Z,87.71
2023-01-29T23:34:31.040Z,87.45
2023-01-29T23:37:34.698Z,86.69
2023-01-29T23:40:37.654Z,86.37
2023-01-29T23:43:40.822Z,86.43
2023-01-29T23:46:44.504Z,86.29
2023-01-29T23:49:47.605Z,85.22
2023-01-29T23:52:50.847Z,85.47
2023-01-29T23:56:03.099Z,84.93
2023-01-29T23:59:07.316Z,84.52
